createdAt,value
2019-03-21T00:01:02.062Z,17.40
2019-03-21T00:03:37.175Z,17.40
2019-03-21T00:06:13.589Z,17.20
2019-03-21T00:08:48.504Z,17.00
2019-03-21T00:12:17.298Z,16.90
2019-03-21T00:15:17.109Z,16.90
2019-03-21T00:17:57.550Z,17.10
2019-03-21T00:20:32.556Z,17.20
2019-03-21T00:23:07.709Z,17.20
2019-03-21T00:25:41.710Z,17.20
2019-03-21T00:28:16.416Z,17.10
2019-03-21T00:30:51.422Z,16.90
2019-03-21T00:33:25.059Z,16.50
2019-03-21T00:35:59.950Z,15.90
2019-03-21T00:38:35.070Z,16.00
2019-03-21T00:41:10.824Z,16.20
2019-03-21T00:43:45.754Z,15.90
2019-03-21T00:46:21.454Z,15.40
2019-03-21T00:48:56.710Z,15.00
2019-03-21T00:51:31.631Z,14.80
2019-03-21T00:54:06.928Z,14.80
2019-03-21T00:56:41.838Z,14.80
2019-03-21T00:59:17.112Z,15.00
2019-03-21T01:01:51.472Z,15.20
2019-03-21T01:04:28.731Z,15.40
2019-03-21T01:07:04.945Z,15.60
2019-03-21T01:09:40.018Z,16.00
2019-03-21T01:12:15.787Z,16.20
2019-03-21T01:14:50.599Z,16.30
2019-03-21T01:17:25.354Z,16.70
2019-03-21T01:20:00.889Z,16.80
2019-03-21T01:22:35.566Z,16.50
2019-03-21T01:25:12.200Z,16.10
2019-03-21T01:27:46.843Z,16.10
2019-03-21T01:30:23.062Z,16.20
2019-03-21T01:32:57.145Z,16.50
2019-03-21T01:35:32.392Z,16.70
2019-03-21T01:38:08.058Z,16.90
2019-03-21T01:40:43.430Z,17.10
2019-03-21T01:43:18.020Z,17.00
2019-03-21T01:45:52.349Z,17.10
2019-03-21T01:48:27.496Z,16.90
2019-03-21T01:51:02.304Z,16.60
2019-03-21T01:53:37.483Z,16.30
2019-03-21T01:56:12.396Z,16.30
2019-03-21T01:58:47.040Z,16.60
2019-03-21T02:01:21.719Z,16.40
2019-03-21T02:03:57.081Z,16.00
2019-03-21T02:06:32.763Z,15.70
2019-03-21T02:09:10.316Z,15.30
2019-03-21T02:11:45.501Z,15.40
2019-03-21T02:14:21.330Z,15.20
2019-03-21T02:16:56.676Z,15.00
2019-03-21T02:19:32.220Z,14.70
2019-03-21T02:22:07.180Z,14.50
2019-03-21T02:24:41.650Z,14.10
2019-03-21T02:27:16.557Z,14.20
2019-03-21T02:29:52.028Z,14.20
2019-03-21T02:32:27.061Z,14.40
2019-03-21T02:35:01.946Z,14.30
2019-03-21T02:37:36.987Z,14.30
2019-03-21T02:40:14.855Z,14.10
2019-03-21T02:42:50.122Z,14.40
2019-03-21T02:45:25.769Z,14.70
2019-03-21T02:48:00.935Z,14.80
2019-03-21T02:50:36.327Z,14.90
2019-03-21T02:53:10.544Z,14.90
2019-03-21T02:55:45.280Z,14.60
2019-03-21T02:58:20.303Z,14.30
2019-03-21T03:00:55.353Z,14.20
2019-03-21T03:03:30.483Z,14.10
2019-03-21T03:06:05.114Z,14.10
2019-03-21T03:08:39.991Z,14.60
2019-03-21T03:11:13.850Z,15.00
2019-03-21T03:13:49.316Z,15.30
2019-03-21T03:16:23.900Z,15.80
2019-03-21T03:18:58.422Z,15.70
2019-03-21T03:21:33.473Z,15.40
2019-03-21T03:24:09.032Z,15.50
2019-03-21T03:26:43.603Z,15.80
2019-03-21T03:29:19.001Z,15.90
2019-03-21T03:31:54.263Z,16.10
2019-03-21T03:34:29.757Z,16.00
2019-03-21T03:37:04.836Z,15.90
2019-03-21T03:39:38.924Z,15.70
2019-03-21T03:42:13.088Z,15.70
2019-03-21T03:44:47.571Z,15.80
2019-03-21T03:47:23.282Z,15.70
2019-03-21T03:49:58.639Z,15.70
2019-03-21T03:52:33.777Z,15.80
2019-03-21T03:55:08.307Z,15.80
2019-03-21T03:57:43.263Z,15.80
2019-03-21T04:00:21.025Z,15.80
2019-03-21T04:02:56.291Z,15.70
2019-03-21T04:05:31.196Z,15.80
2019-03-21T04:08:06.127Z,15.90
2019-03-21T04:10:42.940Z,16.00
2019-03-21T04:13:17.009Z,15.80
2019-03-21T04:15:53.786Z,15.70
2019-03-21T04:18:28.029Z,15.70
2019-03-21T04:21:02.670Z,15.70
2019-03-21T04:23:37.898Z,15.80
2019-03-21T04:26:18.625Z,16.20
2019-03-21T04:28:52.872Z,16.50
2019-03-21T04:31:27.190Z,16.50
2019-03-21T04:34:03.782Z,16.40
2019-03-21T04:36:37.976Z,16.50
2019-03-21T04:39:13.357Z,16.30
2019-03-21T04:41:47.733Z,16.20
2019-03-21T04:44:22.345Z,15.90
2019-03-21T04:46:56.679Z,15.70
2019-03-21T04:49:31.720Z,15.60
2019-03-21T04:52:06.855Z,15.70
2019-03-21T04:54:39.891Z,15.70
2019-03-21T04:57:16.048Z,15.60
2019-03-21T04:59:51.574Z,15.30
2019-03-21T05:02:27.282Z,15.20
2019-03-21T05:05:01.924Z,15.50
2019-03-21T05:07:36.606Z,15.60
2019-03-21T05:10:12.436Z,15.50
2019-03-21T05:12:47.903Z,15.60
2019-03-21T05:15:25.673Z,16.10
2019-03-21T05:18:03.271Z,16.50
2019-03-21T05:20:38.309Z,16.40
2019-03-21T05:23:13.233Z,16.40
2019-03-21T05:25:48.553Z,16.60
2019-03-21T05:28:23.605Z,17.00
2019-03-21T05:31:01.705Z,17.50
2019-03-21T05:33:36.760Z,17.70
2019-03-21T05:36:11.413Z,17.70
2019-03-21T05:38:46.524Z,17.70
2019-03-21T05:41:21.146Z,17.60
2019-03-21T05:44:00.564Z,16.80
2019-03-21T05:46:34.782Z,16.10
2019-03-21T05:49:10.069Z,15.90
2019-03-21T05:51:44.670Z,15.90
2019-03-21T05:54:19.706Z,15.70
2019-03-21T05:56:54.043Z,16.00
2019-03-21T05:59:29.689Z,16.30
2019-03-21T06:02:03.922Z,16.20
2019-03-21T06:04:38.700Z,16.00
2019-03-21T06:07:46.199Z,16.10
2019-03-21T06:10:20.738Z,16.30
2019-03-21T06:12:55.291Z,16.70
2019-03-21T06:15:31.879Z,16.90
2019-03-21T06:19:07.494Z,17.20
2019-03-21T06:22:48.569Z,17.50
2019-03-21T06:26:07.646Z,17.50
2019-03-21T06:28:41.121Z,17.40
2019-03-21T06:31:16.258Z,17.30
2019-03-21T06:33:51.009Z,16.90
2019-03-21T06:36:24.998Z,16.50
2019-03-21T06:39:00.475Z,16.10
2019-03-21T06:41:35.119Z,15.80
2019-03-21T06:44:10.216Z,16.10
2019-03-21T06:46:49.664Z,16.40
2019-03-21T06:49:22.013Z,16.10
2019-03-21T06:51:57.336Z,16.00
2019-03-21T06:54:31.916Z,16.10
2019-03-21T06:57:06.219Z,16.20
2019-03-21T06:59:41.019Z,16.20
2019-03-21T07:02:15.575Z,16.00
2019-03-21T07:04:50.283Z,15.90
2019-03-21T07:07:25.337Z,15.80
2019-03-21T07:09:59.744Z,16.00
2019-03-21T07:12:34.332Z,15.70
2019-03-21T07:15:09.492Z,15.70
2019-03-21T07:17:43.618Z,15.60
2019-03-21T07:20:18.283Z,15.60
2019-03-21T07:22:52.050Z,15.80
2019-03-21T07:25:25.361Z,15.80
2019-03-21T07:27:58.782Z,15.40
2019-03-21T07:30:32.167Z,15.90
2019-03-21T07:33:09.249Z,16.50
2019-03-21T07:35:44.053Z,16.80
2019-03-21T07:38:18.880Z,17.00
2019-03-21T07:40:52.825Z,17.40
2019-03-21T07:43:27.109Z,17.80
2019-03-21T07:46:01.300Z,17.90
2019-03-21T07:48:35.872Z,17.60
2019-03-21T07:51:10.550Z,16.90
2019-03-21T07:53:44.329Z,16.60
2019-03-21T07:56:18.455Z,16.60
2019-03-21T07:58:53.522Z,16.60
2019-03-21T08:01:30.369Z,16.70
2019-03-21T08:04:04.537Z,16.70
2019-03-21T08:06:38.994Z,16.40
2019-03-21T08:09:13.211Z,16.50
2019-03-21T08:11:47.239Z,17.10
2019-03-21T08:14:20.553Z,17.60
2019-03-21T08:16:54.393Z,17.80
2019-03-21T08:19:27.979Z,17.70
2019-03-21T08:22:00.825Z,17.20
2019-03-21T08:24:34.066Z,17.00
2019-03-21T08:27:08.527Z,17.30
2019-03-21T08:29:42.097Z,17.40
2019-03-21T08:32:15.779Z,17.60
2019-03-21T08:34:49.891Z,17.20
2019-03-21T08:37:24.519Z,17.20
2019-03-21T08:39:59.346Z,17.40
2019-03-21T08:42:32.758Z,17.40
2019-03-21T08:45:07.102Z,17.60
2019-03-21T08:47:41.524Z,17.70
2019-03-21T08:50:15.447Z,17.50
2019-03-21T08:52:49.717Z,17.50
2019-03-21T08:55:23.055Z,17.70
2019-03-21T08:57:56.937Z,17.90
2019-03-21T09:00:34.490Z,18.40
2019-03-21T09:03:06.985Z,18.00
2019-03-21T09:05:40.775Z,17.90
2019-03-21T09:08:14.788Z,18.00
2019-03-21T09:10:48.832Z,17.70
2019-03-21T09:13:22.835Z,17.60
2019-03-21T09:15:57.475Z,17.90
2019-03-21T09:18:30.944Z,17.70
2019-03-21T09:21:03.686Z,18.20
2019-03-21T09:23:36.961Z,18.20
2019-03-21T09:26:10.762Z,18.60
2019-03-21T09:28:44.622Z,19.00
2019-03-21T09:31:17.509Z,19.20
2019-03-21T09:33:52.825Z,19.40
2019-03-21T09:36:27.866Z,19.50
2019-03-21T09:39:00.611Z,19.70
2019-03-21T09:41:34.266Z,19.40
2019-03-21T09:44:07.023Z,18.60
2019-03-21T09:46:50.451Z,18.30
2019-03-21T09:49:15.103Z,17.60
2019-03-21T09:51:49.156Z,17.60
2019-03-21T09:54:23.732Z,17.50
2019-03-21T09:56:57.968Z,17.90
2019-03-21T09:59:32.310Z,18.20
2019-03-21T10:02:07.203Z,18.60
2019-03-21T10:04:40.421Z,19.20
2019-03-21T10:07:14.467Z,19.50
2019-03-21T10:09:48.304Z,19.10
2019-03-21T10:12:23.632Z,18.70
2019-03-21T10:14:57.482Z,18.80
2019-03-21T10:17:30.775Z,19.30
2019-03-21T10:20:04.143Z,19.40
2019-03-21T10:22:38.169Z,19.30
2019-03-21T10:25:11.391Z,19.30
2019-03-21T10:27:46.447Z,19.70
2019-03-21T10:30:43.272Z,20.00
2019-03-21T10:33:18.771Z,19.60
2019-03-21T10:35:53.205Z,19.30
2019-03-21T10:38:28.714Z,19.40
2019-03-21T10:41:02.492Z,19.80
2019-03-21T10:43:36.895Z,20.10
2019-03-21T10:46:09.780Z,19.80
2019-03-21T10:48:43.609Z,20.00
2019-03-21T10:51:16.489Z,19.40
2019-03-21T10:53:49.916Z,19.60
2019-03-21T10:56:23.573Z,20.30
2019-03-21T10:58:57.433Z,20.80
2019-03-21T11:01:32.234Z,20.60
2019-03-21T11:04:05.535Z,20.40
2019-03-21T11:06:38.701Z,20.10
2019-03-21T11:09:14.189Z,20.20
2019-03-21T11:11:48.874Z,19.90
2019-03-21T11:14:22.105Z,19.80
2019-03-21T11:16:55.776Z,19.40
2019-03-21T11:19:29.456Z,18.90
2019-03-21T11:22:06.544Z,18.80
2019-03-21T11:24:40.871Z,19.20
2019-03-21T11:27:14.451Z,19.40
2019-03-21T11:29:47.279Z,19.10
2019-03-21T11:32:22.469Z,18.70
2019-03-21T11:34:56.442Z,18.80
2019-03-21T11:37:31.137Z,19.00
2019-03-21T11:40:05.958Z,19.80
2019-03-21T11:42:40.537Z,19.40
2019-03-21T11:45:15.514Z,19.00
2019-03-21T11:47:50.475Z,19.60
2019-03-21T11:50:25.692Z,19.20
2019-03-21T11:52:59.396Z,19.20
2019-03-21T11:55:33.325Z,19.70
2019-03-21T11:58:08.047Z,19.90
2019-03-21T12:00:44.999Z,20.20
2019-03-21T12:03:19.427Z,20.00
2019-03-21T12:05:54.003Z,19.80
2019-03-21T12:08:28.557Z,19.80
2019-03-21T12:11:04.139Z,19.90
2019-03-21T12:13:39.286Z,20.60
2019-03-21T12:16:13.892Z,21.10
2019-03-21T12:18:48.858Z,20.80
2019-03-21T12:21:23.767Z,21.00
2019-03-21T12:23:58.327Z,21.00
2019-03-21T12:26:33.399Z,20.70
2019-03-21T12:29:08.484Z,21.10
2019-03-21T12:31:43.070Z,21.30
2019-03-21T12:34:18.229Z,20.80
2019-03-21T12:36:52.543Z,20.90
2019-03-21T12:39:28.965Z,21.40
2019-03-21T12:42:03.504Z,21.80
2019-03-21T12:44:37.618Z,21.60
2019-03-21T12:47:13.505Z,21.90
2019-03-21T12:49:47.922Z,22.40
2019-03-21T12:52:22.577Z,22.60
2019-03-21T12:54:57.174Z,21.50
2019-03-21T12:57:32.103Z,21.40
2019-03-21T13:00:07.881Z,21.80
2019-03-21T13:02:43.274Z,22.10
2019-03-21T13:05:28.515Z,22.30
2019-03-21T13:08:02.517Z,22.00
2019-03-21T13:10:36.881Z,22.30
2019-03-21T13:13:10.648Z,22.50
2019-03-21T13:15:43.904Z,21.40
2019-03-21T13:18:17.078Z,20.90
2019-03-21T13:20:50.973Z,20.10
2019-03-21T13:23:25.475Z,19.80
2019-03-21T13:25:59.251Z,19.40
2019-03-21T13:28:32.855Z,19.40
2019-03-21T13:31:07.363Z,19.50
2019-03-21T13:33:40.691Z,19.80
2019-03-21T13:36:13.799Z,19.70
2019-03-21T13:38:48.099Z,19.90
2019-03-21T13:41:21.826Z,19.60
2019-03-21T13:43:55.986Z,20.40
2019-03-21T13:46:29.980Z,20.10
2019-03-21T13:49:03.117Z,20.10
2019-03-21T13:51:38.851Z,20.50
2019-03-21T13:54:12.719Z,20.80
2019-03-21T13:56:46.960Z,20.70
2019-03-21T13:59:21.062Z,21.00
2019-03-21T14:01:54.731Z,20.70
2019-03-21T14:04:29.159Z,20.80
2019-03-21T14:07:04.044Z,21.40
2019-03-21T14:09:38.490Z,22.00
2019-03-21T14:12:12.952Z,21.50
2019-03-21T14:14:46.273Z,21.80
2019-03-21T14:17:22.280Z,21.50
2019-03-21T14:19:55.717Z,21.70
2019-03-21T14:22:29.406Z,21.90
2019-03-21T14:25:03.908Z,22.00
2019-03-21T14:27:36.714Z,22.10
2019-03-21T14:30:10.536Z,22.40
2019-03-21T14:32:45.494Z,22.40
2019-03-21T14:35:20.544Z,22.60
2019-03-21T14:37:54.240Z,22.70
2019-03-21T14:40:27.511Z,22.80
2019-03-21T14:43:03.228Z,22.80
2019-03-21T14:45:36.845Z,22.90
2019-03-21T14:48:10.570Z,22.90
2019-03-21T14:50:43.830Z,22.80
2019-03-21T14:53:28.276Z,22.90
2019-03-21T14:55:54.973Z,22.90
2019-03-21T14:58:29.913Z,23.00
2019-03-21T15:01:04.715Z,22.70
2019-03-21T15:03:37.585Z,22.30
2019-03-21T15:06:13.525Z,22.40
2019-03-21T15:08:48.000Z,22.50
2019-03-21T15:11:22.687Z,22.60
2019-03-21T15:13:58.074Z,22.70
2019-03-21T15:16:32.861Z,22.50
2019-03-21T15:19:07.868Z,22.50
2019-03-21T15:21:41.602Z,22.40
2019-03-21T15:24:14.365Z,22.30
2019-03-21T15:26:47.136Z,22.30
2019-03-21T15:29:20.604Z,22.40
2019-03-21T15:31:55.469Z,22.30
2019-03-21T15:34:28.457Z,22.40
2019-03-21T15:37:02.103Z,22.50
2019-03-21T15:39:35.454Z,22.60
2019-03-21T15:42:08.695Z,22.60
2019-03-21T15:44:41.877Z,22.70
2019-03-21T15:47:16.254Z,22.80
2019-03-21T15:49:51.447Z,22.70
2019-03-21T15:52:25.393Z,22.60
2019-03-21T15:54:59.493Z,22.60
2019-03-21T15:57:33.299Z,22.60
2019-03-21T16:00:07.403Z,22.60
2019-03-21T16:02:41.422Z,22.80
2019-03-21T16:05:14.828Z,22.90
2019-03-21T16:07:49.952Z,22.90
2019-03-21T16:10:25.479Z,22.70
2019-03-21T16:13:00.500Z,22.80
2019-03-21T16:15:36.162Z,22.80
2019-03-21T16:18:10.899Z,22.10
2019-03-21T16:20:46.124Z,21.50
2019-03-21T16:23:20.136Z,21.10
2019-03-21T16:25:55.062Z,20.90
2019-03-21T16:28:29.984Z,21.00
2019-03-21T16:31:04.943Z,21.30
2019-03-21T16:33:39.489Z,21.40
2019-03-21T16:36:14.595Z,21.40
2019-03-21T16:38:49.739Z,21.40
2019-03-21T16:41:23.674Z,21.10
2019-03-21T16:43:56.430Z,20.90
2019-03-21T16:46:30.262Z,20.80
2019-03-21T16:49:04.229Z,20.90
2019-03-21T16:51:39.863Z,20.90
2019-03-21T16:54:20.751Z,21.00
2019-03-21T16:56:55.855Z,21.10
2019-03-21T16:59:29.154Z,21.50
2019-03-21T17:02:02.905Z,22.00
2019-03-21T17:04:36.104Z,22.50
2019-03-21T17:07:08.815Z,22.90
2019-03-21T17:09:43.234Z,23.00
2019-03-21T17:12:17.840Z,22.90
2019-03-21T17:14:52.674Z,22.70
2019-03-21T17:17:26.854Z,22.40
2019-03-21T17:20:01.496Z,22.40
2019-03-21T17:22:35.341Z,22.50
2019-03-21T17:25:09.351Z,22.60
2019-03-21T17:27:46.317Z,22.60
2019-03-21T17:30:20.940Z,22.70
2019-03-21T17:32:56.553Z,22.90
2019-03-21T17:35:29.943Z,23.00
2019-03-21T17:38:03.350Z,23.20
2019-03-21T17:40:38.158Z,23.20
2019-03-21T17:43:12.493Z,23.30
2019-03-21T17:45:45.282Z,23.20
2019-03-21T17:48:19.178Z,23.20
2019-03-21T17:50:53.210Z,23.30
2019-03-21T17:53:26.499Z,23.30
2019-03-21T17:56:01.530Z,23.10
2019-03-21T17:58:36.599Z,22.90
2019-03-21T18:01:10.738Z,22.30
2019-03-21T18:03:45.495Z,22.10
2019-03-21T18:06:19.559Z,22.20
2019-03-21T18:08:54.244Z,22.40
2019-03-21T18:11:28.649Z,22.30
2019-03-21T18:14:03.234Z,22.50
2019-03-21T18:16:38.058Z,22.60
2019-03-21T18:19:12.972Z,22.50
2019-03-21T18:21:47.450Z,22.40
2019-03-21T18:24:22.403Z,22.20
2019-03-21T18:26:56.298Z,22.10
2019-03-21T18:29:30.313Z,22.00
2019-03-21T18:32:03.112Z,22.10
2019-03-21T18:34:36.459Z,22.10
2019-03-21T18:37:10.406Z,22.00
2019-03-21T18:39:43.493Z,21.90
2019-03-21T18:42:22.026Z,22.00
2019-03-21T18:44:54.790Z,22.20
2019-03-21T18:47:29.949Z,22.20
2019-03-21T18:50:04.143Z,22.20
2019-03-21T18:52:38.099Z,22.20
2019-03-21T18:55:12.192Z,22.10
2019-03-21T18:57:45.559Z,22.10
2019-03-21T19:00:19.354Z,21.70
2019-03-21T19:02:52.234Z,21.50
2019-03-21T19:05:26.795Z,21.60
2019-03-21T19:08:00.138Z,21.70
2019-03-21T19:10:34.121Z,21.90
2019-03-21T19:13:09.175Z,22.00
2019-03-21T19:15:42.445Z,22.10
2019-03-21T19:18:16.024Z,22.10
2019-03-21T19:20:50.445Z,22.00
2019-03-21T19:23:25.074Z,22.00
2019-03-21T19:25:59.403Z,22.00
2019-03-21T19:28:33.307Z,22.20
2019-03-21T19:31:07.062Z,22.30
2019-03-21T19:33:40.539Z,21.80
2019-03-21T19:36:14.802Z,21.40
2019-03-21T19:38:49.246Z,21.30
2019-03-21T19:41:22.595Z,21.30
2019-03-21T19:43:56.267Z,21.30
2019-03-21T19:46:30.299Z,21.40
2019-03-21T19:49:06.656Z,21.50
2019-03-21T19:51:48.244Z,21.50
2019-03-21T19:54:27.819Z,21.60
2019-03-21T19:57:09.443Z,21.50
2019-03-21T19:59:43.769Z,21.60
2019-03-21T20:02:19.921Z,21.50
2019-03-21T20:04:56.029Z,21.50
2019-03-21T20:07:32.853Z,21.40
2019-03-21T20:10:07.823Z,21.30
2019-03-21T20:12:42.110Z,21.20
2019-03-21T20:15:15.973Z,21.20
2019-03-21T20:17:49.974Z,21.30
2019-03-21T20:20:26.142Z,21.40
2019-03-21T20:23:02.028Z,21.40
2019-03-21T20:25:42.687Z,21.40
2019-03-21T20:28:11.589Z,21.30
2019-03-21T20:30:44.825Z,21.20
2019-03-21T20:33:19.791Z,21.20
2019-03-21T20:35:53.134Z,21.30
2019-03-21T20:38:27.881Z,21.30
2019-03-21T20:41:03.476Z,21.50
2019-03-21T20:43:37.495Z,21.50
2019-03-21T20:46:12.367Z,21.50
2019-03-21T20:48:41.818Z,21.60
2019-03-21T20:51:15.533Z,21.50
2019-03-21T20:53:49.993Z,21.30
2019-03-21T20:56:23.379Z,21.10
2019-03-21T20:58:56.618Z,20.80
2019-03-21T21:01:30.651Z,20.70
2019-03-21T21:04:03.798Z,20.50
2019-03-21T21:06:37.120Z,20.00
2019-03-21T21:09:12.349Z,19.80
2019-03-21T21:11:47.476Z,19.90
2019-03-21T21:14:22.424Z,20.10
2019-03-21T21:16:58.084Z,20.20
2019-03-21T21:19:32.125Z,20.10
2019-03-21T21:22:07.303Z,20.00
2019-03-21T21:24:40.164Z,19.80
2019-03-21T21:27:13.542Z,19.70
2019-03-21T21:29:46.890Z,19.60
2019-03-21T21:32:22.067Z,19.60
2019-03-21T21:34:56.985Z,19.70
2019-03-21T21:37:30.806Z,19.80
2019-03-21T21:40:04.488Z,19.90
2019-03-21T21:42:38.492Z,19.80
2019-03-21T21:45:13.351Z,19.70
2019-03-21T21:48:11.984Z,19.70
2019-03-21T21:50:55.018Z,19.60
2019-03-21T21:53:29.677Z,19.60
2019-03-21T21:56:04.288Z,19.40
2019-03-21T21:58:38.877Z,19.10
2019-03-21T22:01:13.980Z,18.90
2019-03-21T22:03:49.078Z,18.90
2019-03-21T22:06:24.095Z,19.00
2019-03-21T22:08:58.831Z,18.90
2019-03-21T22:11:33.611Z,18.90
2019-03-21T22:14:09.004Z,18.70
2019-03-21T22:16:44.032Z,18.50
2019-03-21T22:19:18.518Z,18.50
2019-03-21T22:21:53.500Z,18.60
2019-03-21T22:24:28.545Z,18.60
2019-03-21T22:27:02.714Z,18.50
2019-03-21T22:29:37.308Z,18.40
2019-03-21T22:32:11.535Z,18.40
2019-03-21T22:34:46.592Z,18.40
2019-03-21T22:37:21.771Z,18.60
2019-03-21T22:39:56.904Z,18.70
2019-03-21T22:42:32.044Z,19.00
2019-03-21T22:45:07.770Z,19.00
2019-03-21T22:47:43.137Z,19.10
2019-03-21T22:50:17.560Z,19.00
2019-03-21T22:52:51.775Z,18.60
2019-03-21T22:55:27.121Z,18.60
2019-03-21T22:58:02.833Z,18.50
2019-03-21T23:00:45.257Z,18.60
2019-03-21T23:03:20.086Z,18.50
2019-03-21T23:05:55.233Z,18.20
2019-03-21T23:08:30.258Z,18.20
2019-03-21T23:11:04.992Z,18.00
2019-03-21T23:13:39.929Z,17.70
2019-03-21T23:16:14.958Z,17.60
2019-03-21T23:18:49.701Z,17.80
2019-03-21T23:21:24.728Z,17.90
2019-03-21T23:23:59.385Z,18.00
2019-03-21T23:26:34.365Z,18.10
2019-03-21T23:29:09.546Z,18.30
2019-03-21T23:31:44.551Z,18.50
2019-03-21T23:34:19.432Z,18.30
2019-03-21T23:36:54.423Z,18.40
2019-03-21T23:39:29.112Z,18.40
2019-03-21T23:42:04.110Z,18.30
2019-03-21T23:44:38.882Z,18.20
2019-03-21T23:47:13.539Z,18.30
2019-03-21T23:49:48.477Z,18.30
2019-03-21T23:52:23.711Z,18.50
2019-03-21T23:54:58.756Z,18.20
2019-03-21T23:57:34.522Z,18.30
